createdAt,value
2022-11-05T00:05:58.597Z,19.27
2022-11-05T00:09:26.991Z,18.90
2022-11-05T00:12:37.298Z,18.95
2022-11-05T00:19:07.851Z,21.90
2022-11-05T00:26:04.774Z,14.95
2022-11-05T00:36:04.415Z,17.62
2022-11-05T00:47:01.731Z,16.57
2022-11-05T00:53:24.164Z,14.65
2022-11-05T01:17:50.842Z,16.12
2022-11-05T01:20:19.774Z,16.35
2022-11-05T01:23:13.742Z,12.07
2022-11-05T01:25:59.679Z,17.87
2022-11-05T01:28:58.982Z,12.30
2022-11-05T01:31:40.360Z,12.98
2022-11-05T01:34:14.792Z,12.63
2022-11-05T01:36:48.045Z,12.50
2022-11-05T01:39:24.404Z,10.82
2022-11-05T01:42:05.823Z,13.03
2022-11-05T01:45:12.674Z,11.38
2022-11-05T01:48:07.828Z,14.18
2022-11-05T01:50:58.554Z,11.65
2022-11-05T01:53:38.406Z,12.45
2022-11-05T01:56:19.587Z,11.78
2022-11-05T01:59:01.816Z,12.55
2022-11-05T02:01:52.786Z,12.15
2022-11-05T02:08:18.784Z,11.33
2022-11-05T02:11:02.563Z,12.75
2022-11-05T02:13:35.019Z,12.80
2022-11-05T02:16:35.833Z,11.60
2022-11-05T02:23:11.815Z,13.62
2022-11-05T02:26:20.920Z,13.43
2022-11-05T02:29:32.005Z,13.68
2022-11-05T02:32:23.901Z,11.83
2022-11-05T02:35:17.351Z,10.58
2022-11-05T02:37:52.239Z,13.55
2022-11-05T02:40:38.137Z,15.43
2022-11-05T02:46:33.392Z,15.80
2022-11-05T02:49:37.827Z,14.58
2022-11-05T02:52:41.800Z,14.55
2022-11-05T02:55:36.586Z,14.10
2022-11-05T02:58:10.934Z,13.58
2022-11-05T03:00:47.760Z,11.05
2022-11-05T03:03:36.843Z,12.47
2022-11-05T03:06:25.552Z,11.75
2022-11-05T03:09:27.633Z,10.98
2022-11-05T03:12:19.159Z,13.15
2022-11-05T03:15:16.996Z,12.45
2022-11-05T03:17:59.820Z,15.38
2022-11-05T03:20:42.669Z,13.40
2022-11-05T03:23:34.483Z,14.73
2022-11-05T03:26:37.566Z,14.58
2022-11-05T03:29:45.978Z,12.47
2022-11-05T03:32:17.776Z,12.28
2022-11-05T03:34:51.224Z,13.30
2022-11-05T03:37:22.417Z,12.95
2022-11-05T03:39:55.336Z,11.90
2022-11-05T03:42:28.618Z,11.83
2022-11-05T03:45:00.225Z,15.60
2022-11-05T03:47:36.057Z,11.40
2022-11-05T03:54:03.280Z,13.25
2022-11-05T03:56:59.118Z,13.93
2022-11-05T03:59:29.559Z,13.10
2022-11-05T04:01:58.167Z,12.45
2022-11-05T04:04:26.543Z,17.82
2022-11-05T04:21:45.976Z,14.03
2022-11-05T04:24:52.962Z,14.78
2022-11-05T04:27:29.223Z,14.78
2022-11-05T04:36:45.602Z,16.85
2022-11-05T04:39:22.845Z,11.97
2022-11-05T04:41:55.774Z,12.70
2022-11-05T04:44:23.993Z,17.60
2022-11-05T04:46:52.404Z,12.23
2022-11-05T05:09:01.018Z,18.50
2022-11-05T05:11:46.847Z,15.65
2022-11-05T05:14:31.496Z,15.45
2022-11-05T05:17:14.080Z,16.05
2022-11-05T05:20:19.105Z,15.40
2022-11-05T05:23:24.257Z,15.32
2022-11-05T05:32:25.386Z,13.45
2022-11-05T05:34:53.480Z,15.53
2022-11-05T05:37:25.203Z,13.32
2022-11-05T05:39:59.503Z,16.45
2022-11-05T05:42:31.782Z,15.58
2022-11-05T05:45:03.050Z,16.37
2022-11-05T05:47:36.008Z,15.20
2022-11-05T05:50:04.537Z,17.35
2022-11-05T05:52:32.472Z,13.43
2022-11-05T05:55:00.390Z,15.23
2022-11-05T05:57:28.451Z,19.80
2022-11-05T05:59:56.478Z,22.77
2022-11-05T06:02:24.792Z,21.00
2022-11-05T06:04:52.764Z,17.77
2022-11-05T06:07:20.815Z,20.32
2022-11-05T06:09:51.470Z,20.75
2022-11-05T06:12:19.985Z,21.37
2022-11-05T06:14:48.204Z,15.43
2022-11-05T06:17:16.451Z,18.90
2022-11-05T06:19:57.003Z,21.20
2022-11-05T06:22:24.651Z,18.42
2022-11-05T06:24:55.069Z,21.15
2022-11-05T06:27:26.571Z,16.32
2022-11-05T06:30:01.569Z,15.23
2022-11-05T06:32:31.068Z,18.30
2022-11-05T06:51:45.575Z,17.75
2022-11-05T07:10:57.021Z,16.55
2022-11-05T07:13:39.207Z,20.15
2022-11-05T07:16:20.500Z,17.55
2022-11-05T07:19:26.846Z,18.00
2022-11-05T07:22:05.729Z,17.30
2022-11-05T07:25:22.847Z,20.35
2022-11-05T07:28:04.295Z,17.30
2022-11-05T07:30:34.466Z,21.80
2022-11-05T07:33:03.377Z,20.95
2022-11-05T07:35:34.034Z,18.42
2022-11-05T07:38:02.174Z,18.57
2022-11-05T07:40:30.548Z,21.75
2022-11-05T07:43:00.845Z,24.63
2022-11-05T07:45:31.225Z,18.85
2022-11-05T07:48:02.097Z,21.82
2022-11-05T07:50:33.812Z,21.35
2022-11-05T07:53:10.909Z,25.32
2022-11-05T07:55:41.751Z,19.00
2022-11-05T07:58:13.869Z,27.25
2022-11-05T08:00:42.269Z,22.95
2022-11-05T08:03:15.818Z,22.45
2022-11-05T08:05:46.354Z,19.37
2022-11-05T08:08:17.849Z,17.85
2022-11-05T08:10:45.611Z,26.40
2022-11-05T08:13:14.619Z,20.70
2022-11-05T08:15:43.170Z,26.05
2022-11-05T08:18:14.857Z,27.45
2022-11-05T08:20:44.528Z,27.48
2022-11-05T08:23:12.951Z,29.85
2022-11-05T08:25:41.524Z,39.83
2022-11-05T08:28:23.282Z,41.28
2022-11-05T08:30:54.286Z,41.77
2022-11-05T08:33:26.132Z,30.88
2022-11-05T08:35:53.854Z,28.20
2022-11-05T08:38:21.669Z,24.98
2022-11-05T08:40:58.038Z,25.00
2022-11-05T08:43:26.489Z,21.77
2022-11-05T08:45:55.046Z,28.87
2022-11-05T08:48:22.635Z,31.87
2022-11-05T08:50:50.834Z,46.28
2022-11-05T08:53:18.754Z,33.67
2022-11-05T08:55:48.685Z,25.20
2022-11-05T08:58:17.067Z,18.80
2022-11-05T09:00:48.324Z,19.73
2022-11-05T09:03:19.915Z,15.30
2022-11-05T09:05:47.760Z,14.87
2022-11-05T09:08:17.947Z,13.32
2022-11-05T09:10:47.085Z,15.53
2022-11-05T09:13:19.412Z,14.00
2022-11-05T09:15:44.497Z,14.93
2022-11-05T09:18:14.026Z,17.15
2022-11-05T09:20:41.856Z,16.62
2022-11-05T09:23:11.395Z,16.52
2022-11-05T09:25:39.553Z,20.12
2022-11-05T09:28:24.632Z,17.40
2022-11-05T09:30:52.959Z,17.00
2022-11-05T09:33:24.379Z,20.75
2022-11-05T09:35:53.021Z,22.50
2022-11-05T09:38:20.805Z,21.45
2022-11-05T09:41:08.439Z,28.23
2022-11-05T09:43:47.817Z,23.12
2022-11-05T09:46:27.250Z,25.70
2022-11-05T09:52:00.746Z,21.25
2022-11-05T09:54:46.586Z,25.77
2022-11-05T09:57:42.156Z,21.00
2022-11-05T10:00:18.735Z,28.67
2022-11-05T10:27:49.815Z,31.17
2022-11-05T10:44:55.587Z,35.43
2022-11-05T10:50:34.636Z,22.85
2022-11-05T10:55:50.952Z,25.60
2022-11-05T12:23:46.472Z,62.03
2022-11-05T12:37:00.967Z,33.63
2022-11-05T12:54:33.088Z,48.10
2022-11-05T13:52:08.552Z,32.40
2022-11-05T14:30:48.190Z,15.53
2022-11-05T14:33:43.595Z,18.70
2022-11-05T14:39:24.497Z,18.85
2022-11-05T14:42:00.457Z,17.75
2022-11-05T15:50:55.689Z,33.78
2022-11-05T17:00:52.273Z,18.67
2022-11-05T17:03:21.702Z,19.75
2022-11-05T17:05:50.627Z,21.27
2022-11-05T17:08:18.791Z,20.80
2022-11-05T17:10:46.715Z,16.23
2022-11-05T17:13:16.448Z,22.62
2022-11-05T17:15:47.491Z,18.95
2022-11-05T17:18:18.981Z,22.35
2022-11-05T17:20:58.100Z,26.23
2022-11-05T17:28:06.158Z,23.15
2022-11-05T17:34:28.506Z,26.05
2022-11-05T17:39:45.143Z,24.15
2022-11-05T17:42:12.958Z,27.85
2022-11-05T17:44:40.743Z,28.35
2022-11-05T17:47:09.262Z,30.80
2022-11-05T17:49:37.164Z,29.10
2022-11-05T17:52:04.814Z,25.80
2022-11-05T17:54:35.315Z,30.30
2022-11-05T17:57:05.426Z,25.77
2022-11-05T17:59:33.544Z,21.27
2022-11-05T18:02:02.182Z,23.60
2022-11-05T18:04:30.145Z,22.00
2022-11-05T18:06:57.633Z,20.15
2022-11-05T18:09:25.699Z,21.45
2022-11-05T18:11:53.340Z,26.60
2022-11-05T18:14:24.054Z,25.68
2022-11-05T18:17:04.674Z,26.00
2022-11-05T18:19:36.973Z,22.82
2022-11-05T18:22:04.631Z,24.12
2022-11-05T18:24:35.836Z,22.58
2022-11-05T18:27:05.375Z,19.82
2022-11-05T18:29:34.660Z,20.43
2022-11-05T18:32:02.885Z,27.55
2022-11-05T19:08:01.855Z,21.75
2022-11-05T19:10:29.685Z,30.50
2022-11-05T19:12:57.801Z,24.90
2022-11-05T19:15:25.649Z,25.32
2022-11-05T19:17:53.199Z,21.25
2022-11-05T19:20:21.021Z,26.97
2022-11-05T19:22:49.483Z,18.48
2022-11-05T19:25:17.229Z,20.15
2022-11-05T19:27:45.606Z,19.65
2022-11-05T19:30:13.600Z,20.92
2022-11-05T19:32:41.197Z,18.87
2022-11-05T19:35:09.231Z,23.35
2022-11-05T19:37:36.742Z,24.47
2022-11-05T19:40:05.436Z,20.95
2022-11-05T19:42:33.089Z,20.48
2022-11-05T19:48:19.801Z,23.25
2022-11-05T21:28:04.910Z,24.57
2022-11-05T21:30:34.254Z,21.73
2022-11-05T21:33:05.745Z,25.65
2022-11-05T21:35:33.900Z,23.25
2022-11-05T21:38:01.922Z,22.32
2022-11-05T21:40:31.438Z,23.90
2022-11-05T21:43:11.949Z,23.95
2022-11-05T21:45:43.834Z,24.35
2022-11-05T21:48:15.828Z,22.62
2022-11-05T21:51:29.558Z,21.12
2022-11-05T21:54:16.264Z,27.67
2022-11-05T21:57:08.289Z,38.05
2022-11-05T21:59:56.305Z,38.88
2022-11-05T22:02:27.646Z,33.70
2022-11-05T22:04:59.204Z,44.30
2022-11-05T22:10:42.353Z,35.85
2022-11-05T22:13:12.331Z,30.30
2022-11-05T22:15:43.464Z,36.23
2022-11-05T22:18:11.880Z,28.30
2022-11-05T22:20:40.395Z,31.48
2022-11-05T22:23:11.564Z,35.50
2022-11-05T22:25:42.722Z,35.50
2022-11-05T22:28:10.929Z,26.90
2022-11-05T22:30:42.204Z,27.05
2022-11-05T22:33:10.432Z,28.00
2022-11-05T22:35:39.452Z,31.55
2022-11-05T22:38:12.470Z,27.67
2022-11-05T22:40:47.611Z,26.35
2022-11-05T22:43:20.972Z,26.05
2022-11-05T22:45:56.437Z,28.25
2022-11-05T22:48:24.694Z,27.73
2022-11-05T22:50:52.851Z,25.17
2022-11-05T22:53:22.596Z,25.70
2022-11-05T22:55:50.625Z,25.72
2022-11-05T22:58:18.388Z,26.90
2022-11-05T23:00:46.167Z,31.07
2022-11-05T23:03:14.327Z,30.75
2022-11-05T23:05:45.526Z,27.13
2022-11-05T23:21:33.794Z,26.02
2022-11-05T23:24:26.744Z,24.95
2022-11-05T23:26:57.860Z,27.53
2022-11-05T23:29:36.031Z,35.63
2022-11-05T23:32:28.260Z,26.37
2022-11-05T23:35:00.271Z,30.32
2022-11-05T23:37:49.507Z,27.77
2022-11-05T23:40:21.838Z,28.95
2022-11-05T23:43:08.791Z,30.20
2022-11-05T23:46:12.161Z,27.98
2022-11-05T23:48:52.375Z,36.45
2022-11-05T23:51:24.351Z,29.02
2022-11-05T23:53:52.622Z,33.28
2022-11-05T23:56:20.664Z,28.27
2022-11-05T23:58:48.773Z,25.82
